createdAt,value
2022-10-04T00:02:34.144Z,82.03
2022-10-04T00:24:24.208Z,81.75
2022-10-04T00:46:15.204Z,81.36
2022-10-04T01:08:09.224Z,81.31
2022-10-04T01:29:55.053Z,82.49
2022-10-04T01:51:48.049Z,83.72
2022-10-04T02:13:38.584Z,83.90
2022-10-04T02:35:25.741Z,84.23
2022-10-04T02:57:18.114Z,85.37
2022-10-04T03:19:04.823Z,86.21
2022-10-04T03:40:56.272Z,86.88
2022-10-04T04:02:48.573Z,87.49
2022-10-04T04:24:34.441Z,87.81
2022-10-04T04:46:27.530Z,87.53
2022-10-04T05:08:15.336Z,87.67
2022-10-04T05:30:07.624Z,87.88
2022-10-04T05:51:57.009Z,87.41
2022-10-04T06:14:01.247Z,86.69
2022-10-04T06:36:14.059Z,85.71
2022-10-04T06:58:27.147Z,83.74
2022-10-04T07:20:22.786Z,79.78
2022-10-04T07:42:21.440Z,76.90
2022-10-04T08:04:20.383Z,72.26
2022-10-04T08:26:23.364Z,49.81
2022-10-04T08:48:40.559Z,35.53
2022-10-04T09:10:39.918Z,35.40
2022-10-04T09:33:07.655Z,30.87
2022-10-04T09:55:24.302Z,30.31
2022-10-04T10:17:20.829Z,27.28
2022-10-04T10:39:38.036Z,33.32
2022-10-04T11:01:48.545Z,38.46
2022-10-04T11:24:02.645Z,41.40
2022-10-04T11:46:11.085Z,45.73
2022-10-04T12:08:13.703Z,46.01
2022-10-04T12:30:27.641Z,46.29
2022-10-04T12:52:20.224Z,47.22
2022-10-04T13:14:39.642Z,47.78
2022-10-04T13:36:37.870Z,47.59
2022-10-04T13:58:36.734Z,48.46
2022-10-04T14:21:19.178Z,49.74
2022-10-04T14:43:31.964Z,48.38
2022-10-04T15:05:45.995Z,49.22
2022-10-04T15:27:54.665Z,52.59
2022-10-04T15:49:58.240Z,54.96
2022-10-04T16:12:07.374Z,57.04
2022-10-04T16:34:03.350Z,59.04
2022-10-04T16:55:57.903Z,61.73
2022-10-04T17:17:51.879Z,64.37
2022-10-04T17:39:46.048Z,66.25
2022-10-04T18:01:39.048Z,68.51
2022-10-04T18:23:28.333Z,69.89
2022-10-04T18:45:25.634Z,71.51
2022-10-04T19:07:14.960Z,72.53
2022-10-04T19:29:11.002Z,73.70
2022-10-04T19:51:04.554Z,73.93
2022-10-04T20:13:16.959Z,74.89
2022-10-04T20:35:04.324Z,75.30
2022-10-04T20:56:56.216Z,75.67
2022-10-04T21:18:42.200Z,75.80
2022-10-04T21:40:31.024Z,76.83
2022-10-04T22:02:16.928Z,77.53
2022-10-04T22:24:04.121Z,77.79
2022-10-04T22:45:50.081Z,77.57
2022-10-04T23:07:38.339Z,78.23
2022-10-04T23:29:28.870Z,79.14
2022-10-04T23:51:17.794Z,80.40
